To NAV CANADA Home Page Login to a new session Search on AWWS site Feedback and Comments Disclaimer Vers la page française équivalente Tips FAQ What's new on the site To the Forecasts and Observations / NOTAM section To "File a Flight Plan" website Publications and other links Update of the User's profile FIC Telephone Numbers My Weather Data Folder Route Weather Data Regional Weather Data Local Weather Data To the Forecasts and Observations / NOTAM section
Request Generated 07/01/2015 at 01:50:19 UTC . Weather information available at that time is displayed.

METAR/TAF

TRENTON/ON    

METAR CYTR 010100Z 05004KT 6SM BR OVC007 17/16 A2976 RMK SF8 CIG VRB 5-9 SLP080=
METAR CYTR 010000Z 08005KT 7SM OVC008 18/17 A2977 RMK SF8 CIG VRB 6-10 SLP084=
METAR CYTR 302300Z 09006KT 7SM BKN008 OVC055 18/17 A2978 RMK SF6SC2 CIG VRB 6-10 SLP087=

TAF CYTR 302330Z 0100/0124 08006KT 3SM -SHRA -DZ BR BKN006 OVC050
TEMPO 0100/0101 P6SM NSW SCT006 OVC050
FM010100 VRB03KT 6SM BR BKN008 OVC040 TEMPO 0101/0107 2SM -DZ BR
OVC005
FM010700 VRB03KT 2SM -SHRA -DZ BR SCT002 OVC005
FM011000 24008KT 4SM -DZ BR SCT004 BKN008 OVC020
FM011600 30012G22KT P6SM -SHRA SCT010 BKN030
FM012100 31012G22KT P6SM BKN040
RMK NXT FCST BY 010600Z=
Your time UTC time
Weather data provided by Environment Canada and NAV CANADA